Time;durP1;ratioP1;P1;durP2;ratioP2;P2;SDS_P1;SDS_P2;PMS_P1;PMS_P2;Temp;Humidity;BMP_temperature;BMP_pressure;BME280_temperature;BME280_humidity;BME280_pressure;Samples;Min_cycle;Max_cycle;Signal;HPM_P1;HPM_P2
2022/06/23 00:01:21;;;;;;;0.80;0.70;;;26.40;84.20;;;;;;5080888;28;20488;-67
2022/06/23 00:03:58;;;;;;;0.60;0.60;;;26.40;83.90;;;;;;5080209;28;20493;-64
2022/06/23 00:06:43;;;;;;;0.70;0.70;;;26.50;84.50;;;;;;5081534;28;20469;-64
2022/06/23 00:09:37;;;;;;;0.53;0.53;;;26.50;83.10;;;;;;5082346;28;20526;-64
2022/06/23 00:12:25;;;;;;;0.70;0.70;;;26.50;81.90;;;;;;5068420;28;21217;-65
2022/06/23 00:15:16;;;;;;;0.60;0.60;;;26.30;84.60;;;;;;5075936;28;20441;-67
2022/06/23 00:17:49;;;;;;;0.60;0.60;;;26.20;84.60;;;;;;5067209;28;20498;-64
2022/06/23 00:20:23;;;;;;;0.70;0.50;;;26.30;81.20;;;;;;5081904;28;20457;-64
2022/06/23 00:22:55;;;;;;;0.50;0.50;;;26.20;83.60;;;;;;5082629;28;20560;-65
2022/06/23 00:25:36;;;;;;;0.60;0.50;;;26.20;83.50;;;;;;5078916;28;20515;-65
2022/06/23 00:28:20;;;;;;;0.60;0.60;;;26.20;85.20;;;;;;5082721;28;20962;-65
2022/06/23 00:30:58;;;;;;;0.50;0.50;;;26.00;83.80;;;;;;5073948;28;20560;-64
2022/06/23 00:33:32;;;;;;;0.50;0.50;;;26.00;83.90;;;;;;5077953;28;20478;-65
2022/06/23 00:36:03;;;;;;;0.83;0.83;;;25.90;84.80;;;;;;5077552;28;20536;-66
2022/06/23 00:38:40;;;;;;;0.93;0.57;;;26.00;83.60;;;;;;5081345;28;20464;-65
2022/06/23 00:41:17;;;;;;;0.90;0.90;;;25.90;83.50;;;;;;5079830;28;20457;-66
2022/06/23 00:43:52;;;;;;;0.70;0.70;;;25.80;82.90;;;;;;5081460;28;20447;-66
2022/06/23 00:46:27;;;;;;;1.00;0.90;;;25.80;80.90;;;;;;5077600;28;20463;-66
2022/06/23 00:49:03;;;;;;;0.60;0.60;;;25.50;83.90;;;;;;5082236;28;20540;-65
2022/06/23 00:51:41;;;;;;;1.13;1.10;;;25.40;84.40;;;;;;5082164;28;20456;-65
2022/06/23 00:54:19;;;;;;;0.90;0.90;;;25.40;84.70;;;;;;5082826;28;20447;-65
2022/06/23 00:56:56;;;;;;;0.80;0.80;;;25.50;85.80;;;;;;5080636;28;20464;-65
2022/06/23 00:59:34;;;;;;;0.80;0.80;;;25.60;85.20;;;;;;5077561;28;20444;-65
2022/06/23 01:02:09;;;;;;;0.60;0.60;;;25.50;84.00;;;;;;5082080;28;20536;-64
2022/06/23 01:04:48;;;;;;;1.93;0.70;;;25.50;84.20;;;;;;5082549;28;20527;-65
2022/06/23 01:07:34;;;;;;;0.70;0.70;;;25.30;85.10;;;;;;5081899;28;20456;-65
2022/06/23 01:10:14;;;;;;;0.67;0.67;;;25.10;85.70;;;;;;5081158;28;20451;-64
2022/06/23 01:12:49;;;;;;;0.83;0.83;;;24.90;85.40;;;;;;5084270;28;20441;-65
2022/06/23 01:15:30;;;;;;;0.70;0.60;;;24.90;86.70;;;;;;5085990;28;20435;-66
2022/06/23 01:18:06;;;;;;;1.20;1.10;;;24.80;88.20;;;;;;5085637;28;20573;-65
2022/06/23 01:20:47;;;;;;;0.60;0.60;;;24.70;88.90;;;;;;5085064;28;20451;-66
2022/06/23 01:23:44;;;;;;;0.90;0.80;;;24.60;88.50;;;;;;5085748;28;20512;-63
2022/06/23 01:26:36;;;;;;;3.03;2.40;;;24.40;88.80;;;;;;5072432;28;20452;-63
2022/06/23 01:29:15;;;;;;;0.80;0.80;;;24.60;88.50;;;;;;5085915;28;20465;-64
2022/06/23 01:31:50;;;;;;;0.80;0.80;;;24.50;88.40;;;;;;5084905;28;20884;-64
2022/06/23 01:34:29;;;;;;;0.83;0.83;;;24.40;89.70;;;;;;5085962;28;20504;-64
2022/06/23 01:37:03;;;;;;;1.77;0.90;;;24.30;90.40;;;;;;5085745;28;20455;-64
2022/06/23 01:39:42;;;;;;;1.00;0.90;;;24.30;90.40;;;;;;5086052;28;20785;-63
2022/06/23 01:42:21;;;;;;;0.90;0.90;;;24.30;90.10;;;;;;5084751;28;20454;-64
2022/06/23 01:45:02;;;;;;;1.70;1.00;;;24.20;90.60;;;;;;5084908;28;20456;-65
2022/06/23 01:47:37;;;;;;;1.07;1.07;;;24.20;90.30;;;;;;5083540;28;20510;-64
2022/06/23 01:50:38;;;;;;;0.60;0.60;;;24.10;90.80;;;;;;5084330;28;20470;-64
2022/06/23 01:53:22;;;;;;;2.50;1.00;;;23.90;91.00;;;;;;4991853;28;20556;-64
2022/06/23 01:56:16;;;;;;;0.60;0.60;;;23.80;91.80;;;;;;4982415;28;20451;-65
2022/06/23 01:58:54;;;;;;;0.80;0.80;;;23.70;92.00;;;;;;4988760;28;20593;-65
2022/06/23 02:01:36;;;;;;;0.80;0.80;;;23.60;91.60;;;;;;4983207;28;20455;-64
2022/06/23 02:04:14;;;;;;;1.17;1.07;;;23.60;91.90;;;;;;4984356;28;20475;-65
2022/06/23 02:06:50;;;;;;;0.93;0.77;;;23.60;92.60;;;;;;4983519;28;20466;-65
2022/06/23 02:09:28;;;;;;;0.80;0.80;;;23.50;92.80;;;;;;4983499;28;20450;-64
2022/06/23 02:11:59;;;;;;;0.90;0.90;;;23.50;92.80;;;;;;4981278;28;20483;-64
2022/06/23 02:15:00;;;;;;;0.73;0.70;;;23.50;92.60;;;;;;4977493;28;21210;-64
2022/06/23 02:17:41;;;;;;;0.97;0.97;;;23.30;92.70;;;;;;4982202;28;20459;-65
2022/06/23 02:20:37;;;;;;;1.47;1.00;;;23.30;93.40;;;;;;4983829;28;20462;-68
2022/06/23 02:23:24;;;;;;;1.03;0.87;;;23.20;93.00;;;;;;4982583;28;20452;-64
2022/06/23 02:25:59;;;;;;;1.10;1.00;;;23.00;93.60;;;;;;4981586;28;20432;-67
2022/06/23 02:28:38;;;;;;;1.30;1.20;;;23.00;93.30;;;;;;5018963;28;20443;-67
2022/06/23 02:31:20;;;;;;;0.90;0.80;;;22.90;93.40;;;;;;5082834;28;20617;-66
2022/06/23 02:33:59;;;;;;;0.80;0.80;;;22.80;93.80;;;;;;5070746;28;20554;-68
2022/06/23 02:37:03;;;;;;;1.17;1.10;;;22.70;93.80;;;;;;5083442;28;20455;-66
2022/06/23 02:39:40;;;;;;;0.90;0.90;;;22.50;94.10;;;;;;5068086;28;20789;-69
2022/06/23 02:42:22;;;;;;;1.10;0.83;;;22.30;94.90;;;;;;5082329;28;20446;-69
2022/06/23 02:45:17;;;;;;;0.70;0.67;;;22.30;93.90;;;;;;5077640;28;20451;-69
2022/06/23 02:48:08;;;;;;;1.40;0.90;;;22.10;94.00;;;;;;5081801;28;20454;-70
2022/06/23 02:51:00;;;;;;;1.20;0.93;;;22.00;94.50;;;;;;5083960;28;20515;-69
2022/06/23 02:54:01;;;;;;;1.20;1.10;;;21.90;94.70;;;;;;5080555;28;20466;-70
2022/06/23 02:56:51;;;;;;;0.97;0.97;;;21.70;94.50;;;;;;5082656;28;20934;-69
2022/06/23 02:59:37;;;;;;;0.70;0.70;;;21.60;94.80;;;;;;5072081;28;20447;-68
2022/06/23 03:02:16;;;;;;;0.80;0.80;;;21.60;94.60;;;;;;5083406;28;20451;-69
2022/06/23 03:04:52;;;;;;;0.63;0.63;;;21.40;94.30;;;;;;5069716;28;20474;-70
2022/06/23 03:07:29;;;;;;;1.37;0.70;;;21.20;95.20;;;;;;5083729;28;20451;-69
2022/06/23 03:10:08;;;;;;;1.00;1.00;;;21.20;95.00;;;;;;5083396;28;20454;-69
2022/06/23 03:12:43;;;;;;;0.70;0.60;;;21.10;94.80;;;;;;5068659;28;20616;-70
2022/06/23 03:15:20;;;;;;;0.87;0.63;;;21.10;95.00;;;;;;5083771;28;20459;-70
2022/06/23 03:17:55;;;;;;;0.90;0.60;;;20.90;94.70;;;;;;5083712;28;21037;-70
2022/06/23 03:20:37;;;;;;;0.50;0.50;;;20.90;94.50;;;;;;5083638;28;20432;-70
2022/06/23 03:23:16;;;;;;;1.00;0.67;;;20.70;94.40;;;;;;5083575;28;20539;-69
2022/06/23 03:25:52;;;;;;;1.10;1.07;;;20.60;94.70;;;;;;5082705;28;20458;-70
2022/06/23 03:28:27;;;;;;;0.40;0.40;;;20.50;95.30;;;;;;5082148;28;20451;-68
2022/06/23 03:31:03;;;;;;;1.17;0.87;;;20.40;94.90;;;;;;5083240;28;20477;-68
2022/06/23 03:33:38;;;;;;;0.90;0.80;;;20.30;95.00;;;;;;5083273;28;20451;-69
2022/06/23 03:36:24;;;;;;;0.83;0.80;;;20.20;94.50;;;;;;5082172;28;20439;-67
2022/06/23 03:41:55;;;;;;;0.70;0.60;;;20.00;94.50;;;;;;5081620;28;20448;-67
2022/06/23 03:44:29;;;;;;;1.13;0.80;;;19.90;94.80;;;;;;5083420;28;20418;-67
2022/06/23 03:47:03;;;;;;;0.53;0.53;;;19.80;94.90;;;;;;5082870;28;20451;-68
2022/06/23 03:49:47;;;;;;;1.30;0.90;;;19.70;95.10;;;;;;5082830;28;20451;-68
2022/06/23 03:52:28;;;;;;;0.87;0.80;;;19.60;95.40;;;;;;5082394;28;20562;-68
2022/06/23 03:55:08;;;;;;;0.67;0.67;;;19.60;95.30;;;;;;5082534;28;20935;-68
2022/06/23 03:57:45;;;;;;;0.73;0.60;;;19.50;95.50;;;;;;5082240;28;20491;-69
2022/06/23 04:00:23;;;;;;;0.60;0.60;;;19.50;95.40;;;;;;5082602;28;20444;-69
2022/06/23 04:03:06;;;;;;;1.20;0.70;;;19.40;95.20;;;;;;5082768;28;20439;-68
2022/06/23 04:06:31;;;;;;;0.50;0.50;;;19.30;95.30;;;;;;5077317;28;20436;-68
2022/06/23 04:09:08;;;;;;;1.37;1.03;;;19.10;95.50;;;;;;5020874;28;20443;-68
2022/06/23 04:12:00;;;;;;;0.80;0.80;;;19.00;96.00;;;;;;5016396;28;20453;-68
2022/06/23 04:14:44;;;;;;;0.87;0.80;;;18.90;96.10;;;;;;5020439;28;20451;-68
2022/06/23 04:17:28;;;;;;;0.70;0.60;;;18.80;95.90;;;;;;5020333;28;20431;-68
2022/06/23 04:20:03;;;;;;;0.77;0.77;;;18.70;96.20;;;;;;5020269;28;20458;-68
2022/06/23 04:22:42;;;;;;;0.87;0.70;;;18.60;96.30;;;;;;5020042;28;20899;-68
2022/06/23 04:25:19;;;;;;;0.70;0.70;;;18.60;96.60;;;;;;5019507;28;20521;-67
2022/06/23 04:27:55;;;;;;;0.90;0.80;;;18.50;97.00;;;;;;5020044;28;20474;-68
2022/06/23 04:30:34;;;;;;;0.80;0.80;;;18.40;96.50;;;;;;5019177;28;20446;-68
2022/06/23 04:33:09;;;;;;;0.90;0.90;;;18.40;96.90;;;;;;5018237;28;20547;-68
2022/06/23 04:35:41;;;;;;;0.97;0.60;;;18.30;96.80;;;;;;5017164;28;20439;-67
2022/06/23 04:38:20;;;;;;;0.73;0.70;;;18.20;97.00;;;;;;5018727;28;21339;-68
2022/06/23 04:40:55;;;;;;;2.10;0.97;;;18.10;97.30;;;;;;5018590;28;20432;-68
2022/06/23 04:43:35;;;;;;;3.80;1.17;;;18.10;97.10;;;;;;5053755;28;20459;-67
2022/06/23 04:46:11;;;;;;;2.00;0.80;;;18.00;97.30;;;;;;5079437;28;20529;-68
2022/06/23 04:48:55;;;;;;;1.37;1.17;;;17.90;97.30;;;;;;5082886;28;20505;-68
2022/06/23 04:51:30;;;;;;;0.97;0.97;;;17.80;97.80;;;;;;5081213;28;20427;-67
2022/06/23 04:54:06;;;;;;;0.90;0.83;;;17.80;97.70;;;;;;5080715;28;20519;-68
2022/06/23 04:56:43;;;;;;;1.87;1.40;;;17.70;97.90;;;;;;5080584;28;20443;-68
2022/06/23 04:59:33;;;;;;;1.00;0.90;;;17.60;98.40;;;;;;5081828;28;20490;-67
2022/06/23 05:02:21;;;;;;;4.43;1.40;;;17.50;99.20;;;;;;5081308;28;20426;-67
2022/06/23 05:04:58;;;;;;;1.10;1.00;;;17.50;99.20;;;;;;5081463;28;20458;-68
2022/06/23 05:07:32;;;;;;;1.50;1.23;;;17.40;99.60;;;;;;5081448;28;20458;-67
2022/06/23 05:10:07;;;;;;;0.90;0.90;;;17.30;99.90;;;;;;5078729;28;20438;-67
2022/06/23 05:12:42;;;;;;;0.90;0.90;;;17.20;99.90;;;;;;5081579;28;20453;-68
2022/06/23 05:15:20;;;;;;;1.30;1.20;;;17.20;99.90;;;;;;5080763;28;20459;-67
2022/06/23 05:17:55;;;;;;;1.00;0.90;;;17.10;99.90;;;;;;5081567;28;20465;-68
2022/06/23 05:20:33;;;;;;;1.20;1.10;;;17.00;99.90;;;;;;5079918;28;20444;-67
2022/06/23 05:23:05;;;;;;;2.30;0.97;;;16.90;99.90;;;;;;5081123;28;20937;-67
2022/06/23 05:25:41;;;;;;;1.40;1.07;;;16.90;99.90;;;;;;5079190;28;20463;-68
2022/06/23 05:28:21;;;;;;;1.20;1.10;;;16.80;99.90;;;;;;5081975;28;20439;-66
2022/06/23 05:30:58;;;;;;;1.23;0.87;;;16.80;99.90;;;;;;5066668;28;20451;-66
2022/06/23 05:33:32;;;;;;;1.77;1.40;;;16.80;99.90;;;;;;5079159;28;20466;-65
2022/06/23 05:36:07;;;;;;;1.43;1.00;;;16.70;99.90;;;;;;5079637;28;20483;-69
2022/06/23 05:38:42;;;;;;;1.87;1.17;;;16.60;99.90;;;;;;5078275;28;20467;-68
2022/06/23 05:41:19;;;;;;;1.63;0.80;;;16.50;99.90;;;;;;5080558;28;20429;-67
2022/06/23 05:43:51;;;;;;;1.37;1.00;;;16.50;99.90;;;;;;5076767;28;20440;-69
2022/06/23 05:46:28;;;;;;;1.53;1.30;;;16.40;99.90;;;;;;5080632;28;20447;-67
2022/06/23 05:49:02;;;;;;;1.20;1.10;;;16.30;99.90;;;;;;5080666;28;20466;-67
2022/06/23 05:51:50;;;;;;;1.83;0.90;;;16.30;99.90;;;;;;5079139;28;20445;-66
2022/06/23 05:54:29;;;;;;;2.97;0.90;;;16.10;99.90;;;;;;5078011;28;20486;-68
2022/06/23 05:57:05;;;;;;;1.90;0.80;;;16.10;99.90;;;;;;5080235;28;20467;-66
2022/06/23 05:59:55;;;;;;;7.77;1.90;;;16.00;99.90;;;;;;5084644;28;20459;-66
2022/06/23 06:02:32;;;;;;;3.03;1.20;;;15.90;99.90;;;;;;5084441;28;20484;-68
2022/06/23 06:05:05;;;;;;;1.30;1.20;;;15.90;99.90;;;;;;5084235;28;20455;-67
2022/06/23 06:07:40;;;;;;;1.63;0.90;;;15.80;99.90;;;;;;5084272;28;20946;-66
2022/06/23 06:10:17;;;;;;;2.20;1.10;;;15.70;99.90;;;;;;5083491;28;20447;-66
2022/06/23 06:12:50;;;;;;;1.30;0.97;;;15.70;99.90;;;;;;5084467;28;20474;-66
2022/06/23 06:15:23;;;;;;;3.53;1.30;;;15.70;99.90;;;;;;5084162;28;20962;-66
2022/06/23 06:18:00;;;;;;;1.13;1.03;;;15.60;99.90;;;;;;5084100;28;20449;-66
2022/06/23 06:20:31;;;;;;;1.27;1.17;;;15.50;99.90;;;;;;5068759;28;20466;-67
2022/06/23 06:23:08;;;;;;;0.80;0.67;;;15.40;99.90;;;;;;5084655;28;20439;-66
2022/06/23 06:25:42;;;;;;;1.10;1.00;;;15.30;99.90;;;;;;5075885;28;20517;-66
2022/06/23 06:28:18;;;;;;;1.00;1.00;;;15.30;99.90;;;;;;5084277;28;20471;-66
2022/06/23 06:30:57;;;;;;;3.17;1.30;;;15.20;99.90;;;;;;5084588;28;20455;-66
2022/06/23 06:33:36;;;;;;;1.10;1.03;;;15.10;99.90;;;;;;5084062;28;20482;-66
2022/06/23 06:36:34;;;;;;;1.17;1.07;;;15.10;99.90;;;;;;5082196;28;20459;-66
2022/06/23 06:39:11;;;;;;;0.87;0.73;;;15.00;99.90;;;;;;5082489;28;20498;-66
2022/06/23 06:41:45;;;;;;;0.90;0.70;;;15.00;99.90;;;;;;5082460;28;20445;-66
2022/06/23 06:44:18;;;;;;;0.70;0.70;;;14.90;99.90;;;;;;5082511;28;20455;-66
2022/06/23 06:46:49;;;;;;;2.03;1.10;;;14.90;99.90;;;;;;5083915;28;20478;-66
2022/06/23 06:49:23;;;;;;;3.40;1.20;;;14.80;99.90;;;;;;5083559;28;20467;-66
2022/06/23 06:51:56;;;;;;;1.20;1.00;;;14.80;99.90;;;;;;5079571;28;20566;-66
2022/06/23 06:54:30;;;;;;;1.27;0.97;;;14.80;99.90;;;;;;5082746;28;20594;-66
2022/06/23 06:57:06;;;;;;;1.27;1.17;;;14.70;99.90;;;;;;5082181;28;20529;-67
2022/06/23 06:59:46;;;;;;;3.10;1.10;;;14.60;99.90;;;;;;5083019;28;20461;-66
2022/06/23 07:02:22;;;;;;;0.93;0.83;;;14.60;99.90;;;;;;5082848;28;20463;-66
2022/06/23 07:05:02;;;;;;;7.07;1.60;;;14.50;99.90;;;;;;5081912;28;20968;-66
2022/06/23 07:07:40;;;;;;;1.90;1.10;;;14.50;99.90;;;;;;5083051;28;20459;-66
2022/06/23 07:10:22;;;;;;;0.80;0.70;;;14.40;99.90;;;;;;5078182;28;20441;-66
2022/06/23 07:12:58;;;;;;;1.10;0.80;;;14.40;99.90;;;;;;5083373;28;20473;-66
2022/06/23 07:15:32;;;;;;;1.67;1.53;;;14.30;99.90;;;;;;5083334;28;20504;-67
2022/06/23 07:18:10;;;;;;;1.10;1.00;;;14.20;99.90;;;;;;5083732;28;20447;-66
2022/06/23 07:20:47;;;;;;;0.87;0.83;;;14.20;99.90;;;;;;5083447;28;20458;-67
2022/06/23 07:23:22;;;;;;;0.93;0.70;;;14.10;99.90;;;;;;5081887;28;20462;-66
2022/06/23 07:25:56;;;;;;;0.70;0.70;;;14.10;99.90;;;;;;5081431;28;20546;-65
2022/06/23 07:28:36;;;;;;;2.40;1.20;;;14.00;99.90;;;;;;5082099;28;20439;-66
2022/06/23 07:31:13;;;;;;;1.20;1.00;;;14.00;99.90;;;;;;5082180;28;20823;-66
2022/06/23 07:33:52;;;;;;;2.87;0.83;;;14.00;99.90;;;;;;5082294;28;20485;-66
2022/06/23 07:36:32;;;;;;;1.07;0.80;;;13.90;99.90;;;;;;5082012;28;20470;-66
2022/06/23 07:39:09;;;;;;;0.70;0.70;;;13.80;99.90;;;;;;5080276;28;20455;-66
2022/06/23 07:41:47;;;;;;;1.07;0.97;;;13.80;99.90;;;;;;5081419;28;20892;-66
2022/06/23 07:44:22;;;;;;;0.80;0.70;;;13.70;99.90;;;;;;5082294;28;20459;-66
2022/06/23 07:46:53;;;;;;;7.50;1.07;;;13.80;99.90;;;;;;5081179;28;20870;-66
2022/06/23 07:49:28;;;;;;;2.30;0.97;;;13.70;99.90;;;;;;5081863;28;20462;-66
2022/06/23 07:52:01;;;;;;;1.70;0.83;;;13.70;99.90;;;;;;5081675;28;20424;-66
2022/06/23 07:54:38;;;;;;;1.17;0.80;;;13.60;99.90;;;;;;5082381;28;20544;-65
2022/06/23 07:57:10;;;;;;;1.17;1.07;;;13.50;99.90;;;;;;5079671;28;20463;-66
2022/06/23 07:59:46;;;;;;;1.43;0.90;;;13.50;99.90;;;;;;5081505;28;20550;-66
2022/06/23 08:02:21;;;;;;;0.97;0.70;;;13.50;99.90;;;;;;5081076;28;20530;-66
2022/06/23 08:05:01;;;;;;;2.93;0.90;;;13.50;99.90;;;;;;5082059;28;20482;-66
2022/06/23 08:07:34;;;;;;;0.73;0.50;;;13.40;99.90;;;;;;5081255;28;20487;-65
2022/06/23 08:10:08;;;;;;;1.00;0.90;;;13.40;99.90;;;;;;5080930;28;20455;-66
2022/06/23 08:12:56;;;;;;;1.13;0.70;;;13.30;99.90;;;;;;5078190;28;20462;-65
2022/06/23 08:18:32;;;;;;;1.10;0.70;;;13.20;99.90;;;;;;5081762;28;20470;-65
2022/06/23 08:21:08;;;;;;;1.77;0.70;;;13.10;99.90;;;;;;5082202;28;20508;-66
2022/06/23 08:23:47;;;;;;;0.60;0.60;;;13.10;99.90;;;;;;5074105;28;20465;-66
2022/06/23 08:26:19;;;;;;;0.60;0.60;;;13.10;99.90;;;;;;5079759;28;20463;-65
2022/06/23 08:28:54;;;;;;;0.90;0.90;;;13.10;99.90;;;;;;5075587;28;21026;-66
2022/06/23 08:31:25;;;;;;;2.10;0.80;;;13.10;99.90;;;;;;5080943;28;20458;-66
2022/06/23 08:34:16;;;;;;;1.70;0.53;;;13.00;99.90;;;;;;5081576;28;20495;-65
2022/06/23 08:36:49;;;;;;;3.10;0.90;;;13.00;99.90;;;;;;5080165;28;20474;-65
2022/06/23 08:39:26;;;;;;;0.70;0.70;;;12.90;99.90;;;;;;5081665;28;20478;-65
2022/06/23 08:42:03;;;;;;;0.80;0.80;;;12.90;99.90;;;;;;5079589;28;20463;-65
2022/06/23 08:44:41;;;;;;;2.83;0.80;;;12.80;99.90;;;;;;5069060;28;20942;-65
2022/06/23 08:47:20;;;;;;;3.33;0.83;;;12.80;99.90;;;;;;5073772;28;20462;-65
2022/06/23 08:49:56;;;;;;;1.60;0.77;;;12.80;99.90;;;;;;5081568;28;20509;-65
2022/06/23 08:52:36;;;;;;;0.80;0.80;;;12.80;99.90;;;;;;5080884;28;20458;-65
2022/06/23 08:55:17;;;;;;;1.10;0.57;;;12.70;99.90;;;;;;5079959;28;20550;-65
2022/06/23 08:58:16;;;;;;;2.13;0.77;;;12.60;99.90;;;;;;5080157;28;20475;-65
2022/06/23 09:00:53;;;;;;;0.70;0.67;;;12.60;99.90;;;;;;5077146;28;20474;-65
2022/06/23 09:03:36;;;;;;;1.43;0.50;;;12.70;99.90;;;;;;5081169;28;20462;-65
2022/06/23 09:06:23;;;;;;;0.70;0.70;;;12.60;99.90;;;;;;5080258;28;20465;-65
2022/06/23 09:09:05;;;;;;;1.00;0.73;;;12.60;99.90;;;;;;5080439;28;20466;-65
2022/06/23 09:11:51;;;;;;;1.20;1.10;;;12.60;99.90;;;;;;5074525;28;20467;-65
2022/06/23 09:14:59;;;;;;;1.63;0.60;;;12.50;99.90;;;;;;5080326;28;20519;-65
2022/06/23 09:17:56;;;;;;;1.00;0.77;;;12.50;99.90;;;;;;5075168;28;20539;-65
2022/06/23 09:20:42;;;;;;;2.10;0.97;;;12.40;99.90;;;;;;5080565;28;20456;-65
2022/06/23 09:23:51;;;;;;;2.00;1.00;;;12.40;99.90;;;;;;5080974;28;20451;-65
2022/06/23 09:26:29;;;;;;;1.83;0.90;;;12.30;99.90;;;;;;5079564;28;20459;-66
2022/06/23 09:29:10;;;;;;;1.33;0.73;;;12.30;99.90;;;;;;5073082;28;20481;-65
2022/06/23 09:31:53;;;;;;;1.33;0.67;;;12.20;99.90;;;;;;5080689;28;20537;-65
2022/06/23 09:34:42;;;;;;;3.70;1.17;;;12.20;99.90;;;;;;5071471;28;20463;-65
2022/06/23 09:37:44;;;;;;;0.70;0.70;;;12.10;99.90;;;;;;5076556;28;20469;-65
2022/06/23 09:40:39;;;;;;;1.23;1.13;;;12.00;99.90;;;;;;5084054;28;20462;-65
2022/06/23 09:43:49;;;;;;;1.80;0.90;;;12.00;99.90;;;;;;5080704;28;20463;-65
2022/06/23 09:46:54;;;;;;;2.10;1.00;;;12.00;99.90;;;;;;4987215;28;20475;-65
2022/06/23 09:49:45;;;;;;;1.50;0.90;;;12.00;99.90;;;;;;4988773;28;20482;-65
2022/06/23 09:52:47;;;;;;;2.93;0.93;;;11.90;99.90;;;;;;4982199;28;20471;-65
2022/06/23 09:55:48;;;;;;;2.60;1.10;;;11.90;99.90;;;;;;4978367;28;20498;-65
2022/06/23 09:58:57;;;;;;;1.30;0.70;;;11.90;99.90;;;;;;4931946;28;20565;-65
2022/06/23 10:01:40;;;;;;;0.90;0.80;;;11.70;99.90;;;;;;4925364;29;20570;-65
2022/06/23 10:04:25;;;;;;;1.57;0.80;;;11.70;99.90;;;;;;4939928;29;20465;-65
2022/06/23 10:07:17;;;;;;;1.57;0.83;;;11.60;99.90;;;;;;4925387;29;20623;-65
2022/06/23 10:10:09;;;;;;;1.10;1.00;;;11.60;99.90;;;;;;4927658;29;20466;-65
2022/06/23 10:13:15;;;;;;;1.10;1.00;;;11.50;99.90;;;;;;4926354;29;20471;-65
2022/06/23 10:16:02;;;;;;;1.23;0.80;;;11.50;99.90;;;;;;4920429;29;20498;-65
2022/06/23 10:18:53;;;;;;;0.73;0.43;;;11.50;99.90;;;;;;4914078;29;20509;-65
2022/06/23 10:21:42;;;;;;;0.90;0.87;;;11.40;99.90;;;;;;4926430;29;20482;-65
2022/06/23 10:24:48;;;;;;;3.13;0.90;;;11.40;99.90;;;;;;5001220;28;20463;-65
2022/06/23 10:27:33;;;;;;;1.10;1.00;;;11.40;99.90;;;;;;5001420;28;20578;-65
2022/06/23 10:30:12;;;;;;;4.20;1.10;;;11.40;99.90;;;;;;5001473;28;20459;-65
2022/06/23 10:33:32;;;;;;;1.93;0.93;;;11.30;99.90;;;;;;5001596;28;20483;-65
2022/06/23 10:36:34;;;;;;;2.70;0.80;;;11.30;99.90;;;;;;5052787;28;20554;-65
2022/06/23 10:39:18;;;;;;;2.30;0.97;;;11.30;99.90;;;;;;5082137;28;20455;-64
2022/06/23 10:42:15;;;;;;;1.37;0.90;;;11.30;99.90;;;;;;5082333;28;20468;-64
2022/06/23 10:45:14;;;;;;;1.30;0.70;;;11.20;99.90;;;;;;5082542;28;20469;-65
2022/06/23 10:48:30;;;;;;;2.03;0.90;;;11.20;99.90;;;;;;5082684;28;20462;-65
2022/06/23 10:51:15;;;;;;;1.03;0.93;;;11.20;99.90;;;;;;5039888;28;20465;-65
2022/06/23 10:54:16;;;;;;;4.90;1.37;;;11.20;99.90;;;;;;5037997;28;20576;-65
2022/06/23 10:57:09;;;;;;;2.57;1.10;;;11.20;99.90;;;;;;5040220;28;20577;-64
2022/06/23 11:00:07;;;;;;;0.73;0.70;;;11.20;99.90;;;;;;5039700;28;20457;-64
2022/06/23 11:03:27;;;;;;;2.70;1.23;;;11.10;99.90;;;;;;5040414;28;20495;-64
2022/06/23 11:06:34;;;;;;;4.70;1.20;;;11.00;99.90;;;;;;5039443;28;20461;-65
2022/06/23 11:09:42;;;;;;;1.23;0.90;;;11.00;99.90;;;;;;5039217;28;20465;-64
2022/06/23 11:12:39;;;;;;;1.83;1.07;;;11.00;99.90;;;;;;5039127;28;20457;-64
2022/06/23 11:15:33;;;;;;;1.57;0.67;;;10.90;99.90;;;;;;5040395;28;20449;-64
2022/06/23 11:18:23;;;;;;;1.33;0.90;;;10.80;99.90;;;;;;5039470;28;20457;-65
2022/06/23 11:21:08;;;;;;;3.90;0.97;;;10.90;99.90;;;;;;5028109;28;20448;-65
2022/06/23 11:23:46;;;;;;;0.90;0.90;;;10.90;99.90;;;;;;5035903;28;20629;-65
2022/06/23 11:26:37;;;;;;;0.90;0.80;;;10.90;99.90;;;;;;5044160;28;20459;-65
2022/06/23 11:29:34;;;;;;;2.07;1.20;;;10.80;99.90;;;;;;5082950;28;20456;-65
2022/06/23 11:32:24;;;;;;;1.50;1.00;;;10.80;99.90;;;;;;5082002;28;20455;-65
2022/06/23 11:35:12;;;;;;;0.73;0.70;;;10.90;99.90;;;;;;5082339;28;20521;-65
2022/06/23 11:37:57;;;;;;;1.17;0.70;;;10.80;99.90;;;;;;5081894;28;20577;-65
2022/06/23 11:40:45;;;;;;;1.53;0.90;;;10.80;99.90;;;;;;5081020;28;20459;-65
2022/06/23 11:43:22;;;;;;;2.93;1.40;;;10.80;99.90;;;;;;5081038;28;20490;-66
2022/06/23 11:46:10;;;;;;;3.07;1.20;;;10.70;99.90;;;;;;5081132;28;20447;-65
2022/06/23 11:49:02;;;;;;;2.50;1.30;;;10.80;99.90;;;;;;5080712;28;20494;-65
2022/06/23 11:51:56;;;;;;;1.53;1.43;;;10.70;99.90;;;;;;5081182;28;20459;-65
2022/06/23 11:54:42;;;;;;;0.90;0.90;;;10.70;99.90;;;;;;5080273;28;21136;-65
2022/06/23 11:57:30;;;;;;;1.10;1.00;;;10.60;99.90;;;;;;5081302;28;20499;-65
2022/06/23 12:00:09;;;;;;;0.70;0.70;;;10.50;99.90;;;;;;5081041;28;20463;-65
2022/06/23 12:03:12;;;;;;;1.13;1.03;;;10.50;99.90;;;;;;5073525;28;20839;-65
2022/06/23 12:05:50;;;;;;;3.40;1.30;;;10.50;99.90;;;;;;5080046;28;20578;-65
2022/06/23 12:08:37;;;;;;;3.90;1.27;;;10.40;99.90;;;;;;5081042;28;20532;-65
2022/06/23 12:11:08;;;;;;;2.50;1.20;;;10.40;99.90;;;;;;5080623;28;20500;-64
2022/06/23 12:13:42;;;;;;;3.63;1.63;;;10.30;99.90;;;;;;5081527;28;20474;-65
2022/06/23 12:16:14;;;;;;;2.63;1.40;;;10.30;99.90;;;;;;5082085;28;20475;-65
2022/06/23 12:18:50;;;;;;;1.80;1.13;;;10.40;99.90;;;;;;5079092;28;20577;-65
2022/06/23 12:21:31;;;;;;;1.10;1.00;;;10.40;99.90;;;;;;5079173;28;20482;-64
2022/06/23 12:24:09;;;;;;;1.30;1.20;;;10.40;99.90;;;;;;5081257;28;20464;-64
2022/06/23 12:26:46;;;;;;;2.10;1.00;;;10.30;99.90;;;;;;5081379;28;20458;-65
2022/06/23 12:29:25;;;;;;;0.87;0.87;;;10.30;99.90;;;;;;5080510;28;20926;-64
2022/06/23 12:32:07;;;;;;;3.30;1.00;;;10.40;99.90;;;;;;5080517;28;20588;-65
2022/06/23 12:34:45;;;;;;;1.80;1.70;;;10.40;99.90;;;;;;5081705;28;20520;-64
2022/06/23 12:37:27;;;;;;;1.50;0.80;;;10.30;99.90;;;;;;5080287;28;20499;-64
2022/06/23 12:40:06;;;;;;;1.50;1.40;;;10.30;99.90;;;;;;5080531;28;20567;-64
2022/06/23 12:42:41;;;;;;;2.60;1.23;;;10.30;99.90;;;;;;5080949;28;20466;-64
2022/06/23 12:45:49;;;;;;;0.93;0.70;;;10.30;99.90;;;;;;5081483;28;20457;-65
2022/06/23 12:48:47;;;;;;;2.67;1.30;;;10.30;99.90;;;;;;5072335;28;20459;-64
2022/06/23 12:51:32;;;;;;;2.30;0.93;;;10.30;99.90;;;;;;5074299;28;20463;-64
2022/06/23 12:54:34;;;;;;;1.60;1.10;;;10.30;99.90;;;;;;5074135;28;20597;-64
2022/06/23 12:57:16;;;;;;;0.87;0.87;;;10.30;99.90;;;;;;5077948;28;20501;-65
2022/06/23 12:59:54;;;;;;;1.63;1.30;;;10.30;99.90;;;;;;5078408;28;20463;-65
2022/06/23 13:02:31;;;;;;;3.23;1.40;;;10.40;99.90;;;;;;5080714;28;20569;-65
2022/06/23 13:05:15;;;;;;;2.73;1.87;;;10.40;99.90;;;;;;5079701;28;20455;-65
2022/06/23 13:07:54;;;;;;;1.37;1.20;;;10.40;99.90;;;;;;5072175;28;20985;-65
2022/06/23 13:10:29;;;;;;;1.40;1.27;;;10.40;99.90;;;;;;5080309;28;20463;-63
2022/06/23 13:13:06;;;;;;;1.80;0.97;;;10.40;99.90;;;;;;5073705;28;20876;-63
2022/06/23 13:15:41;;;;;;;1.33;0.97;;;10.40;99.90;;;;;;5079557;28;20478;-63
2022/06/23 13:18:19;;;;;;;1.13;1.03;;;10.50;99.90;;;;;;5080663;28;20487;-63
2022/06/23 13:20:56;;;;;;;2.37;0.93;;;10.50;99.90;;;;;;5080006;28;20454;-64
2022/06/23 13:23:35;;;;;;;1.20;1.10;;;10.60;99.90;;;;;;5081164;28;20463;-64
2022/06/23 13:26:13;;;;;;;2.00;1.07;;;10.70;99.90;;;;;;5080320;28;20462;-65
2022/06/23 13:28:45;;;;;;;2.30;1.10;;;10.70;99.90;;;;;;5064881;28;20444;-65
2022/06/23 13:31:21;;;;;;;1.40;1.00;;;10.70;99.90;;;;;;5065535;28;20966;-64
2022/06/23 13:33:59;;;;;;;1.83;1.30;;;10.70;99.90;;;;;;5081659;28;20455;-65
2022/06/23 13:36:40;;;;;;;1.20;1.13;;;10.70;99.90;;;;;;5080499;28;20495;-65
2022/06/23 13:39:21;;;;;;;1.10;1.00;;;10.80;99.90;;;;;;5081390;28;20442;-65
2022/06/23 13:41:58;;;;;;;1.27;1.00;;;10.80;99.90;;;;;;5080883;28;20455;-64
2022/06/23 13:44:36;;;;;;;1.67;1.57;;;10.80;99.90;;;;;;5082089;28;20424;-65
2022/06/23 13:47:12;;;;;;;1.97;1.10;;;10.90;99.90;;;;;;5081256;28;20457;-66
2022/06/23 13:49:49;;;;;;;2.87;1.40;;;10.90;99.90;;;;;;5081359;28;20851;-65
2022/06/23 13:52:28;;;;;;;4.13;1.50;;;10.90;99.90;;;;;;5079434;28;20462;-64
2022/06/23 13:55:03;;;;;;;1.60;1.27;;;11.00;99.90;;;;;;5081245;28;20470;-64
2022/06/23 13:57:50;;;;;;;2.23;1.10;;;11.10;99.90;;;;;;5062085;28;20482;-64
2022/06/23 14:00:28;;;;;;;1.43;1.33;;;11.20;99.90;;;;;;5079538;28;20467;-64
2022/06/23 14:03:08;;;;;;;2.93;1.90;;;11.30;99.90;;;;;;5078677;28;20440;-64
2022/06/23 14:05:42;;;;;;;1.87;1.43;;;11.40;99.90;;;;;;5076984;28;20848;-64
2022/06/23 14:08:23;;;;;;;2.57;1.10;;;11.50;99.90;;;;;;5080688;28;20963;-64
2022/06/23 14:11:01;;;;;;;6.80;1.30;;;11.70;99.90;;;;;;5080183;28;20530;-64